createdAt,value
2018-08-17T00:00:37.756Z,8.20
2018-08-17T00:03:07.956Z,9.80
2018-08-17T00:05:38.092Z,8.93
2018-08-17T00:08:08.248Z,7.90
2018-08-17T00:10:38.402Z,7.60
2018-08-17T00:13:08.537Z,7.53
2018-08-17T00:15:38.716Z,7.27
2018-08-17T00:18:09.044Z,5.93
2018-08-17T00:20:39.197Z,6.23
2018-08-17T00:23:09.381Z,6.37
2018-08-17T00:25:39.556Z,6.93
2018-08-17T00:28:09.680Z,6.00
2018-08-17T00:30:39.868Z,6.20
2018-08-17T00:33:10.001Z,6.03
2018-08-17T00:35:40.106Z,6.00
2018-08-17T00:38:13.373Z,6.63
2018-08-17T00:40:43.488Z,6.17
2018-08-17T00:43:13.612Z,6.20
2018-08-17T00:45:43.752Z,6.53
2018-08-17T00:48:16.249Z,5.90
2018-08-17T00:50:46.364Z,6.37
2018-08-17T00:53:36.862Z,6.37
2018-08-17T00:56:07.080Z,6.57
2018-08-17T00:58:37.189Z,6.13
2018-08-17T01:01:07.728Z,6.13
2018-08-17T01:03:38.008Z,6.13
2018-08-17T01:06:08.225Z,5.73
2018-08-17T01:08:38.524Z,5.93
2018-08-17T01:11:08.800Z,5.70
2018-08-17T01:13:52.857Z,5.90
2018-08-17T01:16:29.600Z,6.10
2018-08-17T01:18:59.736Z,5.80
2018-08-17T01:21:33.965Z,6.00
2018-08-17T01:24:05.995Z,6.20
2018-08-17T01:26:36.247Z,6.00
2018-08-17T01:29:06.576Z,5.70
2018-08-17T01:31:36.684Z,5.77
2018-08-17T01:34:06.798Z,5.97
2018-08-17T01:36:36.924Z,6.00
2018-08-17T01:39:29.965Z,6.40
2018-08-17T01:42:01.387Z,6.13
2018-08-17T01:44:31.790Z,6.77
2018-08-17T01:47:02.148Z,6.20
2018-08-17T01:49:32.247Z,6.20
2018-08-17T01:52:02.465Z,6.27
2018-08-17T01:54:33.405Z,5.93
2018-08-17T01:57:03.562Z,5.80
2018-08-17T01:59:33.800Z,6.30
2018-08-17T02:02:04.029Z,6.20
2018-08-17T02:04:34.148Z,6.27
2018-08-17T02:07:04.400Z,6.50
2018-08-17T02:09:34.532Z,5.80
2018-08-17T02:12:06.417Z,6.13
2018-08-17T02:14:36.575Z,6.03
2018-08-17T02:17:06.676Z,6.00
2018-08-17T02:19:36.769Z,5.67
2018-08-17T02:22:06.939Z,6.03
2018-08-17T02:24:37.430Z,6.30
2018-08-17T02:27:31.618Z,5.77
2018-08-17T02:30:01.745Z,6.10
2018-08-17T02:32:31.836Z,6.10
2018-08-17T02:35:01.965Z,6.20
2018-08-17T02:37:32.714Z,6.13
2018-08-17T02:40:03.171Z,6.00
2018-08-17T02:42:34.882Z,6.37
2018-08-17T02:45:06.021Z,6.37
2018-08-17T02:47:42.735Z,5.83
2018-08-17T02:50:12.840Z,5.90
2018-08-17T02:56:03.366Z,6.60
2018-08-17T02:58:33.445Z,6.57
2018-08-17T03:01:03.583Z,6.57
2018-08-17T03:03:33.888Z,6.10
2018-08-17T03:06:05.198Z,6.23
2018-08-17T03:08:35.360Z,6.50
2018-08-17T03:11:05.533Z,5.70
2018-08-17T03:13:35.636Z,5.80
2018-08-17T03:16:05.850Z,5.47
2018-08-17T03:18:35.949Z,5.93
2018-08-17T03:21:06.160Z,5.80
2018-08-17T03:23:36.289Z,6.20
2018-08-17T03:26:06.949Z,6.13
2018-08-17T03:28:38.376Z,6.30
2018-08-17T03:31:08.713Z,5.80
2018-08-17T03:33:39.402Z,5.93
2018-08-17T03:36:09.697Z,6.03
2018-08-17T03:38:40.295Z,6.10
2018-08-17T03:41:10.701Z,5.90
2018-08-17T03:43:41.126Z,6.37
2018-08-17T03:46:11.503Z,6.37
2018-08-17T03:48:41.970Z,6.00
2018-08-17T03:51:12.449Z,5.97
2018-08-17T03:54:07.492Z,6.43
2018-08-17T03:56:37.870Z,5.97
2018-08-17T03:59:09.490Z,6.33
2018-08-17T04:04:52.078Z,6.30
2018-08-17T04:07:22.286Z,5.83
2018-08-17T04:09:52.373Z,6.43
2018-08-17T04:12:24.030Z,5.80
2018-08-17T04:15:03.402Z,6.20
2018-08-17T04:24:04.157Z,6.03
2018-08-17T04:27:00.594Z,5.80
2018-08-17T04:29:31.064Z,6.07
2018-08-17T04:32:01.290Z,5.37
2018-08-17T04:34:35.391Z,5.57
2018-08-17T04:40:32.581Z,4.90
2018-08-17T04:43:03.901Z,4.93
2018-08-17T04:45:33.960Z,4.43
2018-08-17T04:48:06.075Z,4.40
2018-08-17T04:50:36.200Z,4.57
2018-08-17T04:53:06.322Z,4.40
2018-08-17T04:58:53.849Z,4.30
2018-08-17T05:01:23.935Z,4.43
2018-08-17T05:03:54.067Z,4.20
2018-08-17T05:06:24.188Z,4.40
2018-08-17T05:08:54.295Z,4.00
2018-08-17T05:11:24.509Z,4.23
2018-08-17T05:13:54.632Z,9.33
2018-08-17T05:16:24.753Z,6.27
2018-08-17T05:18:54.838Z,5.20
2018-08-17T05:21:24.967Z,3.70
2018-08-17T05:23:55.057Z,4.00
2018-08-17T05:26:25.165Z,4.53
2018-08-17T05:28:55.269Z,4.90
2018-08-17T05:31:25.429Z,4.57
2018-08-17T05:33:55.549Z,5.00
2018-08-17T05:36:25.670Z,4.37
2018-08-17T05:38:55.768Z,12.50
2018-08-17T05:41:25.890Z,12.73
2018-08-17T05:43:55.987Z,22.53
2018-08-17T05:46:26.114Z,8.67
2018-08-17T05:48:56.190Z,11.23
2018-08-17T05:51:26.285Z,4.10
2018-08-17T05:53:56.378Z,3.97
2018-08-17T05:56:26.468Z,5.33
2018-08-17T05:58:56.589Z,4.23
2018-08-17T06:01:26.742Z,5.43
2018-08-17T06:03:56.863Z,5.07
2018-08-17T06:06:26.967Z,3.80
2018-08-17T06:08:57.351Z,4.20
2018-08-17T06:11:27.865Z,4.03
2018-08-17T06:13:58.238Z,4.40
2018-08-17T06:16:28.343Z,3.80
2018-08-17T06:18:58.476Z,4.00
2018-08-17T06:21:28.667Z,3.70
2018-08-17T06:23:58.787Z,3.70
2018-08-17T06:26:29.699Z,3.67
2018-08-17T06:28:59.790Z,3.50
2018-08-17T06:31:29.942Z,3.80
2018-08-17T06:34:00.078Z,3.50
2018-08-17T06:36:30.200Z,3.40
2018-08-17T06:39:00.304Z,3.33
2018-08-17T06:41:30.432Z,3.57
2018-08-17T06:44:00.493Z,3.87
2018-08-17T06:46:30.607Z,3.20
2018-08-17T06:49:00.684Z,3.00
2018-08-17T06:51:30.789Z,3.03
2018-08-17T06:54:00.876Z,3.43
2018-08-17T06:56:31.004Z,3.10
2018-08-17T06:59:01.084Z,3.17
2018-08-17T07:01:31.172Z,3.17
2018-08-17T07:04:01.277Z,3.00
2018-08-17T07:06:31.420Z,3.10
2018-08-17T07:09:01.941Z,2.77
2018-08-17T07:11:32.077Z,4.10
2018-08-17T07:14:02.165Z,16.07
2018-08-17T07:16:32.316Z,15.50
2018-08-17T07:19:03.384Z,7.13
2018-08-17T07:21:33.564Z,4.23
2018-08-17T07:24:03.700Z,10.10
2018-08-17T07:26:33.803Z,15.03
2018-08-17T07:29:07.312Z,12.80
2018-08-17T07:31:37.424Z,9.53
2018-08-17T07:34:07.923Z,4.40
2018-08-17T07:36:38.000Z,9.23
2018-08-17T07:39:08.597Z,20.07
2018-08-17T07:41:38.729Z,9.17
2018-08-17T07:44:09.214Z,3.77
2018-08-17T07:46:39.294Z,6.63
2018-08-17T07:49:09.546Z,5.10
2018-08-17T07:51:39.672Z,4.60
2018-08-17T07:54:09.792Z,24.83
2018-08-17T07:56:39.904Z,19.30
2018-08-17T07:59:10.021Z,8.30
2018-08-17T08:01:40.107Z,4.60
2018-08-17T08:04:10.180Z,3.50
2018-08-17T08:06:40.296Z,3.10
2018-08-17T08:09:11.277Z,5.27
2018-08-17T08:11:42.332Z,4.17
2018-08-17T08:14:12.490Z,3.40
2018-08-17T08:16:42.601Z,4.07
2018-08-17T08:19:14.545Z,3.23
2018-08-17T08:21:49.710Z,3.50
2018-08-17T08:24:20.326Z,3.00
2018-08-17T08:26:50.404Z,3.60
2018-08-17T08:29:20.583Z,3.37
2018-08-17T08:31:50.612Z,2.73
2018-08-17T08:34:21.900Z,2.90
2018-08-17T08:36:51.972Z,3.03
2018-08-17T08:39:22.272Z,3.10
2018-08-17T08:41:52.384Z,2.80
2018-08-17T08:44:22.463Z,2.80
2018-08-17T08:46:52.760Z,2.60
2018-08-17T08:49:23.236Z,2.70
2018-08-17T08:51:53.524Z,2.40
2018-08-17T08:54:23.645Z,2.63
2018-08-17T08:56:53.712Z,2.80
2018-08-17T08:59:23.802Z,2.87
2018-08-17T09:01:54.907Z,2.73
2018-08-17T09:04:25.000Z,2.73
2018-08-17T09:06:55.557Z,2.33
2018-08-17T09:09:25.616Z,2.93
2018-08-17T09:11:55.912Z,2.87
2018-08-17T09:14:26.212Z,2.87
2018-08-17T09:16:56.271Z,2.90
2018-08-17T09:19:26.336Z,3.10
2018-08-17T09:21:56.393Z,3.17
2018-08-17T09:24:26.484Z,2.77
2018-08-17T09:26:56.548Z,3.23
2018-08-17T09:29:28.686Z,2.90
2018-08-17T09:31:59.389Z,3.03
2018-08-17T09:34:29.676Z,2.80
2018-08-17T09:36:59.751Z,2.70
2018-08-17T09:39:30.044Z,2.93
2018-08-17T09:42:00.199Z,2.83
2018-08-17T09:44:30.368Z,2.70
2018-08-17T09:47:00.440Z,2.57
2018-08-17T09:49:30.708Z,2.60
2018-08-17T09:52:01.404Z,2.40
2018-08-17T09:54:31.488Z,2.70
2018-08-17T09:57:01.699Z,2.63
2018-08-17T09:59:31.772Z,2.70
2018-08-17T10:02:09.666Z,2.50
2018-08-17T10:04:42.062Z,5.70
2018-08-17T10:07:17.452Z,5.13
2018-08-17T10:09:52.678Z,3.10
2018-08-17T10:12:26.198Z,3.30
2018-08-17T10:14:56.440Z,6.50
2018-08-17T10:17:27.246Z,4.90
2018-08-17T10:19:57.480Z,7.90
2018-08-17T10:22:27.565Z,3.40
2018-08-17T10:25:07.351Z,3.07
2018-08-17T10:27:37.404Z,4.67
2018-08-17T10:30:07.620Z,3.20
2018-08-17T10:32:44.521Z,3.10
2018-08-17T10:35:19.152Z,2.70
2018-08-17T10:37:49.464Z,2.90
2018-08-17T10:40:19.780Z,2.80
2018-08-17T10:42:49.999Z,3.00
2018-08-17T10:45:20.924Z,2.80
2018-08-17T10:47:51.858Z,3.07
2018-08-17T10:50:24.278Z,2.90
2018-08-17T10:52:55.848Z,3.37
2018-08-17T10:55:39.377Z,2.77
2018-08-17T10:58:11.772Z,3.00
2018-08-17T11:00:43.313Z,2.87
2018-08-17T11:03:13.769Z,2.80
2018-08-17T11:05:43.962Z,3.00
2018-08-17T11:08:14.096Z,3.00
2018-08-17T11:10:44.922Z,2.80
2018-08-17T11:13:15.315Z,3.03
2018-08-17T11:15:45.393Z,2.90
2018-08-17T11:18:15.512Z,3.00
2018-08-17T11:20:45.632Z,2.90
2018-08-17T11:23:15.941Z,2.70
2018-08-17T11:25:46.209Z,2.80
2018-08-17T11:28:16.389Z,3.10
2018-08-17T11:30:46.500Z,2.97
2018-08-17T11:33:17.392Z,2.93
2018-08-17T11:35:47.597Z,3.10
2018-08-17T11:38:17.927Z,3.17
2018-08-17T11:40:48.003Z,3.17
2018-08-17T11:43:18.104Z,3.17
2018-08-17T11:45:48.180Z,3.53
2018-08-17T11:48:26.401Z,3.30
2018-08-17T11:50:57.222Z,7.60
2018-08-17T11:53:27.340Z,6.77
2018-08-17T11:55:57.604Z,3.10
2018-08-17T11:58:27.742Z,3.27
2018-08-17T12:00:58.258Z,3.57
2018-08-17T12:03:28.816Z,3.47
2018-08-17T12:05:58.884Z,3.20
2018-08-17T12:08:29.684Z,3.47
2018-08-17T12:11:04.123Z,3.10
2018-08-17T12:13:37.789Z,3.13
2018-08-17T12:16:11.689Z,3.17
2018-08-17T12:18:41.802Z,3.50
2018-08-17T12:21:12.144Z,3.57
2018-08-17T12:23:42.232Z,3.30
2018-08-17T12:26:12.396Z,3.23
2018-08-17T12:28:42.692Z,3.13
2018-08-17T12:31:12.780Z,3.30
2018-08-17T12:33:43.018Z,3.17
2018-08-17T12:36:13.178Z,3.30
2018-08-17T12:38:43.296Z,3.30
2018-08-17T12:41:13.469Z,3.20
2018-08-17T12:43:43.553Z,3.20
2018-08-17T12:46:13.624Z,3.23
2018-08-17T12:48:48.132Z,2.80
2018-08-17T12:51:18.576Z,2.90
2018-08-17T12:53:48.635Z,3.23
2018-08-17T12:56:18.859Z,2.90
2018-08-17T12:58:48.944Z,2.77
2018-08-17T13:01:19.611Z,2.80
2018-08-17T13:03:49.893Z,2.70
2018-08-17T13:06:21.176Z,3.10
2018-08-17T13:08:51.224Z,3.03
2018-08-17T13:11:21.355Z,2.80
2018-08-17T13:13:56.296Z,2.77
2018-08-17T13:16:26.649Z,3.10
2018-08-17T13:18:56.760Z,2.70
2018-08-17T13:21:26.853Z,3.00
2018-08-17T13:23:57.709Z,2.60
2018-08-17T13:26:28.748Z,3.00
2018-08-17T13:28:58.901Z,3.00
2018-08-17T13:31:29.808Z,2.80
2018-08-17T13:34:00.308Z,3.57
2018-08-17T13:36:30.505Z,2.93
2018-08-17T13:39:00.844Z,3.03
2018-08-17T13:41:30.940Z,3.50
2018-08-17T13:44:01.160Z,7.53
2018-08-17T13:46:37.113Z,3.70
2018-08-17T13:49:07.616Z,3.70
2018-08-17T13:51:38.008Z,3.97
2018-08-17T13:54:08.240Z,4.43
2018-08-17T13:56:38.400Z,9.27
2018-08-17T13:59:08.728Z,5.23
2018-08-17T14:01:38.808Z,4.67
2018-08-17T14:04:09.097Z,4.50
2018-08-17T14:06:39.294Z,10.17
2018-08-17T14:09:09.444Z,5.40
2018-08-17T14:11:39.724Z,6.50
2018-08-17T14:14:09.869Z,3.50
2018-08-17T14:16:40.212Z,3.50
2018-08-17T14:19:10.289Z,3.60
2018-08-17T14:21:40.492Z,8.40
2018-08-17T14:24:10.876Z,6.03
2018-08-17T14:26:40.984Z,4.10
2018-08-17T14:29:11.244Z,6.17
2018-08-17T14:31:41.316Z,4.07
2018-08-17T14:34:11.672Z,4.63
2018-08-17T14:36:42.156Z,5.90
2018-08-17T14:39:12.322Z,4.30
2018-08-17T14:41:54.936Z,4.50
2018-08-17T14:44:26.093Z,4.17
2018-08-17T14:46:56.455Z,3.60
2018-08-17T14:49:27.200Z,4.40
2018-08-17T14:51:57.427Z,4.13
2018-08-17T14:54:27.536Z,3.70
2018-08-17T14:56:57.632Z,3.53
2018-08-17T14:59:28.199Z,4.07
2018-08-17T15:01:58.284Z,3.90
2018-08-17T15:04:28.515Z,3.63
2018-08-17T15:06:58.622Z,3.53
2018-08-17T15:09:28.754Z,3.63
2018-08-17T15:11:59.084Z,3.60
2018-08-17T15:14:29.208Z,4.17
2018-08-17T15:16:59.292Z,3.60
2018-08-17T15:19:29.692Z,3.80
2018-08-17T15:22:01.030Z,3.80
2018-08-17T15:24:31.300Z,3.80
2018-08-17T15:27:01.606Z,3.80
2018-08-17T15:29:32.427Z,3.90
2018-08-17T15:32:02.608Z,4.07
2018-08-17T15:34:32.680Z,3.90
2018-08-17T15:37:03.415Z,3.87
2018-08-17T15:39:33.805Z,4.00
2018-08-17T15:42:04.028Z,3.67
2018-08-17T15:44:34.435Z,3.70
2018-08-17T15:47:04.608Z,9.07
2018-08-17T15:49:36.160Z,7.87
2018-08-17T15:52:07.360Z,8.20
2018-08-17T15:54:37.560Z,4.10
2018-08-17T15:57:08.215Z,4.10
2018-08-17T15:59:38.392Z,7.03
2018-08-17T16:02:08.600Z,3.80
2018-08-17T16:04:39.253Z,5.20
2018-08-17T16:07:09.777Z,4.13
2018-08-17T16:09:42.538Z,4.50
2018-08-17T16:12:12.684Z,4.50
2018-08-17T16:14:43.206Z,4.50
2018-08-17T16:17:13.339Z,4.40
2018-08-17T16:19:43.675Z,4.33
2018-08-17T16:22:13.783Z,4.50
2018-08-17T16:24:44.166Z,4.57
2018-08-17T16:27:14.295Z,4.53
2018-08-17T16:29:44.692Z,4.30
2018-08-17T16:32:14.834Z,5.00
2018-08-17T16:34:45.286Z,4.20
2018-08-17T16:37:15.575Z,4.70
2018-08-17T16:39:51.124Z,4.40
2018-08-17T16:42:28.478Z,4.50
2018-08-17T16:44:58.920Z,4.23
2018-08-17T16:47:29.088Z,4.70
2018-08-17T16:49:59.732Z,4.50
2018-08-17T16:52:29.810Z,4.27
2018-08-17T16:55:00.644Z,4.60
2018-08-17T16:57:30.772Z,4.47
2018-08-17T17:00:01.036Z,4.37
2018-08-17T17:02:31.292Z,4.50
2018-08-17T17:05:01.496Z,4.30
2018-08-17T17:07:32.899Z,4.50
2018-08-17T17:10:03.865Z,4.70
2018-08-17T17:12:34.202Z,4.47
2018-08-17T17:15:11.696Z,4.57
2018-08-17T17:17:42.146Z,4.83
2018-08-17T17:20:12.941Z,4.80
2018-08-17T17:22:43.084Z,4.70
2018-08-17T17:25:18.884Z,4.73
2018-08-17T17:27:49.745Z,4.70
2018-08-17T17:30:19.844Z,4.20
2018-08-17T17:32:50.127Z,4.90
2018-08-17T17:35:20.412Z,7.80
2018-08-17T17:37:50.855Z,9.10
2018-08-17T17:40:20.936Z,17.90
2018-08-17T17:42:51.057Z,9.17
2018-08-17T17:45:21.620Z,6.97
2018-08-17T17:47:51.733Z,8.43
2018-08-17T17:50:25.460Z,5.77
2018-08-17T17:52:55.930Z,6.13
2018-08-17T17:55:35.588Z,6.73
2018-08-17T17:58:05.913Z,6.47
2018-08-17T18:00:36.089Z,7.30
2018-08-17T18:03:06.419Z,6.20
2018-08-17T18:05:36.713Z,5.73
2018-08-17T18:08:12.721Z,6.30
2018-08-17T18:10:43.156Z,6.00
2018-08-17T18:13:14.208Z,6.37
2018-08-17T18:15:44.353Z,15.40
2018-08-17T18:18:15.016Z,22.00
2018-08-17T18:20:47.093Z,12.53
2018-08-17T18:23:17.426Z,9.67
2018-08-17T18:25:47.644Z,11.83
2018-08-17T18:28:17.816Z,8.43
2018-08-17T18:30:48.306Z,49.07
2018-08-17T18:33:18.456Z,57.47
2018-08-17T18:35:49.585Z,117.37
2018-08-17T18:38:19.800Z,15.50
2018-08-17T18:40:50.168Z,8.20
2018-08-17T18:43:20.252Z,6.43
2018-08-17T18:45:50.340Z,21.27
2018-08-17T18:48:21.171Z,18.13
2018-08-17T18:50:51.293Z,15.73
2018-08-17T18:53:21.476Z,10.73
2018-08-17T18:55:51.558Z,12.03
2018-08-17T18:58:21.688Z,26.67
2018-08-17T19:00:51.896Z,14.13
2018-08-17T19:03:21.992Z,11.10
2018-08-17T19:05:53.075Z,9.17
2018-08-17T19:08:23.856Z,11.57
2018-08-17T19:10:53.979Z,8.87
2018-08-17T19:13:24.616Z,14.67
2018-08-17T19:15:55.025Z,14.53
2018-08-17T19:18:30.928Z,14.10
2018-08-17T19:21:10.503Z,41.13
2018-08-17T19:23:40.639Z,56.53
2018-08-17T19:26:11.624Z,17.60
2018-08-17T19:28:41.709Z,11.90
2018-08-17T19:31:11.811Z,13.00
2018-08-17T19:33:41.905Z,11.50
2018-08-17T19:36:12.099Z,8.00
2018-08-17T19:38:43.003Z,25.47
2018-08-17T19:41:13.144Z,32.70
2018-08-17T19:43:43.231Z,33.77
2018-08-17T19:46:13.477Z,10.40
2018-08-17T19:48:43.733Z,8.70
2018-08-17T19:51:18.837Z,10.43
2018-08-17T19:53:49.229Z,8.10
2018-08-17T19:56:19.489Z,8.90
2018-08-17T19:58:50.192Z,12.17
2018-08-17T20:01:20.664Z,12.60
2018-08-17T20:03:50.997Z,11.03
2018-08-17T20:06:21.132Z,8.67
2018-08-17T20:08:51.316Z,70.33
2018-08-17T20:11:21.703Z,66.13
2018-08-17T20:13:51.853Z,12.10
2018-08-17T20:16:27.127Z,15.60
2018-08-17T20:18:58.240Z,11.97
2018-08-17T20:21:29.145Z,12.37
2018-08-17T20:23:59.252Z,11.30
2018-08-17T20:26:29.603Z,12.97
2018-08-17T20:28:59.483Z,11.93
2018-08-17T20:31:29.650Z,11.17
2018-08-17T20:34:00.148Z,10.20
2018-08-17T20:36:30.264Z,8.87
2018-08-17T20:39:00.523Z,8.73
2018-08-17T20:41:31.313Z,9.27
2018-08-17T20:44:02.680Z,15.00
2018-08-17T20:46:33.039Z,13.47
2018-08-17T20:49:03.153Z,11.60
2018-08-17T20:51:33.441Z,10.30
2018-08-17T20:54:03.812Z,13.90
2018-08-17T20:56:33.944Z,12.53
2018-08-17T20:59:04.116Z,14.33
2018-08-17T21:01:34.329Z,15.20
2018-08-17T21:04:04.459Z,10.90
2018-08-17T21:06:34.581Z,14.27
2018-08-17T21:09:07.167Z,10.17
2018-08-17T21:11:37.348Z,10.20
2018-08-17T21:14:07.404Z,11.23
2018-08-17T21:16:37.553Z,11.47
2018-08-17T21:19:07.923Z,11.20
2018-08-17T21:21:38.113Z,9.73
2018-08-17T21:24:08.344Z,11.27
2018-08-17T21:26:38.437Z,9.87
2018-08-17T21:29:08.685Z,10.30
2018-08-17T21:31:38.741Z,10.40
2018-08-17T21:34:08.836Z,10.33
2018-08-17T21:36:38.928Z,9.80
2018-08-17T21:39:14.689Z,10.50
2018-08-17T21:41:46.228Z,10.40
2018-08-17T21:44:18.304Z,10.33
2018-08-17T21:46:54.872Z,14.73
2018-08-17T21:49:26.027Z,14.27
2018-08-17T21:51:57.812Z,15.63
2018-08-17T21:54:29.980Z,12.90
2018-08-17T21:57:01.086Z,10.47
2018-08-17T21:59:36.583Z,12.43
2018-08-17T22:02:10.093Z,10.73
2018-08-17T22:04:40.175Z,12.10
2018-08-17T22:07:14.380Z,10.13
2018-08-17T22:09:49.740Z,11.97
2018-08-17T22:12:19.883Z,11.43
2018-08-17T22:14:50.561Z,12.43
2018-08-17T22:17:34.909Z,10.23
2018-08-17T22:20:07.248Z,10.50
2018-08-17T22:22:37.460Z,10.87
2018-08-17T22:25:14.055Z,11.33
2018-08-17T22:27:44.945Z,10.47
2018-08-17T22:30:22.488Z,11.17
2018-08-17T22:32:52.624Z,11.53
2018-08-17T22:35:22.802Z,11.10
2018-08-17T22:37:52.929Z,10.50
2018-08-17T22:40:23.052Z,11.30
2018-08-17T22:42:53.196Z,10.47
2018-08-17T22:45:23.280Z,20.20
2018-08-17T22:47:53.510Z,27.40
2018-08-17T22:50:23.617Z,13.77
2018-08-17T22:52:53.718Z,14.13
2018-08-17T22:55:23.856Z,12.90
2018-08-17T22:57:53.985Z,14.07
2018-08-17T23:00:26.102Z,13.53
2018-08-17T23:03:02.431Z,13.07
2018-08-17T23:05:36.195Z,12.80
2018-08-17T23:08:06.368Z,11.57
2018-08-17T23:10:36.468Z,11.73
2018-08-17T23:13:06.652Z,12.33
2018-08-17T23:15:36.811Z,11.93
2018-08-17T23:18:07.012Z,12.67
2018-08-17T23:20:38.537Z,12.30
2018-08-17T23:23:08.640Z,12.17
2018-08-17T23:25:38.720Z,11.90
2018-08-17T23:28:08.835Z,31.73
2018-08-17T23:30:38.972Z,18.03
2018-08-17T23:33:09.165Z,17.33
2018-08-17T23:35:39.268Z,18.13
2018-08-17T23:38:09.387Z,18.83
2018-08-17T23:40:39.476Z,17.93
2018-08-17T23:43:09.633Z,14.57
2018-08-17T23:45:39.740Z,12.97
2018-08-17T23:48:09.905Z,14.77
2018-08-17T23:50:40.298Z,14.10
2018-08-17T23:53:10.386Z,14.30
2018-08-17T23:55:40.500Z,13.83
2018-08-17T23:58:10.629Z,12.97
